createdAt,value
2018-06-13T00:00:03.494Z,99164.44
2018-06-13T00:02:32.920Z,99167.12
2018-06-13T00:05:02.734Z,99165.56
2018-06-13T00:07:32.485Z,99159.39
2018-06-13T00:10:01.943Z,99160.73
2018-06-13T00:12:31.482Z,99164.83
2018-06-13T00:15:01.288Z,99161.08
2018-06-13T00:17:31.056Z,99161.09
2018-06-13T00:20:00.764Z,99153.60
2018-06-13T00:22:30.268Z,99150.38
2018-06-13T00:25:00.206Z,99145.04
2018-06-13T00:27:30.009Z,99145.57
2018-06-13T00:29:59.910Z,99146.38
2018-06-13T00:32:29.618Z,99140.99
2018-06-13T00:34:59.413Z,99143.10
2018-06-13T00:37:29.369Z,99137.77
2018-06-13T00:39:59.228Z,99141.81
2018-06-13T00:42:29.012Z,99144.23
2018-06-13T00:44:59.546Z,99140.73
2018-06-13T00:47:29.252Z,99140.24
2018-06-13T00:49:59.036Z,99138.67
2018-06-13T00:52:28.783Z,99136.30
2018-06-13T00:54:58.500Z,99142.53
2018-06-13T00:57:28.397Z,99142.53
2018-06-13T00:59:58.124Z,99142.30
2018-06-13T01:02:27.870Z,99134.77
2018-06-13T01:04:57.686Z,99136.11
2018-06-13T01:07:27.154Z,99139.08
2018-06-13T01:09:56.574Z,99139.88
2018-06-13T01:12:26.401Z,99142.84
2018-06-13T01:14:56.282Z,99149.01
2018-06-13T01:17:25.720Z,99142.31
2018-06-13T01:19:55.579Z,99142.04
2018-06-13T01:22:25.263Z,99139.61
2018-06-13T01:24:54.958Z,99140.69
2018-06-13T01:27:24.432Z,99138.54
2018-06-13T01:29:54.190Z,99139.62
2018-06-13T01:32:24.126Z,99138.84
2018-06-13T01:34:53.942Z,99139.34
2018-06-13T01:37:23.731Z,99136.95
2018-06-13T01:39:53.184Z,99135.61
2018-06-13T01:42:22.598Z,99142.08
2018-06-13T01:44:52.484Z,99135.88
2018-06-13T01:47:22.462Z,99132.88
2018-06-13T01:49:52.202Z,99141.00
2018-06-13T01:52:21.653Z,99137.50
2018-06-13T01:54:51.453Z,99142.86
2018-06-13T01:57:21.343Z,99148.55
2018-06-13T01:59:51.031Z,99150.70
2018-06-13T02:02:20.737Z,99150.70
2018-06-13T02:04:50.657Z,99152.83
2018-06-13T02:07:20.408Z,99149.59
2018-06-13T02:09:50.194Z,99153.09
2018-06-13T02:12:19.907Z,99159.56
2018-06-13T02:14:49.662Z,99160.36
2018-06-13T02:17:19.231Z,99167.10
2018-06-13T02:19:48.982Z,99175.18
2018-06-13T02:22:18.936Z,99175.18
2018-06-13T02:24:48.623Z,99176.53
2018-06-13T02:27:18.160Z,99175.46
2018-06-13T02:29:47.961Z,99176.27
2018-06-13T02:32:17.454Z,99180.58
2018-06-13T02:34:47.190Z,99173.03
2018-06-13T02:37:16.988Z,99177.66
2018-06-13T02:39:46.811Z,99181.44
2018-06-13T02:42:16.592Z,99177.92
2018-06-13T02:44:46.295Z,99169.30
2018-06-13T02:47:16.034Z,99166.60
2018-06-13T02:49:45.865Z,99171.69
2018-06-13T02:52:15.643Z,99174.92
2018-06-13T02:54:45.394Z,99173.30
2018-06-13T02:57:15.215Z,99183.55
2018-06-13T02:59:44.972Z,99175.73
2018-06-13T03:02:14.664Z,99182.20
2018-06-13T03:04:44.446Z,99183.55
2018-06-13T03:07:14.458Z,99185.44
2018-06-13T03:09:44.184Z,99178.20
2018-06-13T03:12:14.007Z,99174.16
2018-06-13T03:14:43.703Z,99180.90
2018-06-13T03:17:13.482Z,99188.98
2018-06-13T03:19:43.283Z,99192.75
2018-06-13T03:22:12.695Z,99191.95
2018-06-13T03:24:42.560Z,99185.52
2018-06-13T03:27:12.308Z,99188.80
2018-06-13T03:29:42.035Z,99182.60
2018-06-13T03:32:11.836Z,99176.20
2018-06-13T03:34:41.670Z,99179.44
2018-06-13T03:37:11.527Z,99181.59
2018-06-13T03:39:41.243Z,99183.75
2018-06-13T03:42:10.983Z,99184.05
2018-06-13T03:44:40.715Z,99177.31
2018-06-13T03:47:10.558Z,99180.55
2018-06-13T03:49:40.382Z,99171.65
2018-06-13T03:52:10.286Z,99177.61
2018-06-13T03:54:40.078Z,99178.42
2018-06-13T03:57:09.769Z,99179.77
2018-06-13T03:59:39.401Z,99170.62
2018-06-13T04:02:09.130Z,99166.88
2018-06-13T04:04:39.034Z,99169.83
2018-06-13T04:07:09.239Z,99164.99
2018-06-13T04:09:38.981Z,99166.12
2018-06-13T04:12:08.836Z,99166.15
2018-06-13T04:14:38.535Z,99169.38
2018-06-13T04:17:08.388Z,99167.48
2018-06-13T04:19:38.157Z,99169.94
2018-06-13T04:22:07.965Z,99173.70
2018-06-13T04:24:37.713Z,99172.89
2018-06-13T04:27:07.438Z,99179.91
2018-06-13T04:29:37.455Z,99170.16
2018-06-13T04:32:07.338Z,99173.11
2018-06-13T04:34:37.278Z,99170.91
2018-06-13T04:37:07.067Z,99166.23
2018-06-13T04:39:36.849Z,99160.20
2018-06-13T04:42:06.640Z,99167.13
2018-06-13T04:44:36.411Z,99163.81
2018-06-13T04:47:06.270Z,99160.52
2018-06-13T04:49:36.035Z,99164.75
2018-06-13T04:52:06.309Z,99158.70
2018-06-13T04:54:36.079Z,99156.71
2018-06-13T04:57:05.907Z,99157.36
2018-06-13T04:59:35.661Z,99154.19
2018-06-13T05:02:05.530Z,99151.58
2018-06-13T05:04:35.295Z,99156.51
2018-06-13T05:07:05.386Z,99156.42
2018-06-13T05:09:35.390Z,99158.46
2018-06-13T05:12:05.260Z,99153.45
2018-06-13T05:14:35.044Z,99160.89
2018-06-13T05:17:04.852Z,99150.81
2018-06-13T05:19:35.187Z,99152.52
2018-06-13T05:22:05.011Z,99149.81
2018-06-13T05:24:34.758Z,99153.68
2018-06-13T05:27:04.533Z,99148.16
2018-06-13T05:29:34.763Z,99150.74
2018-06-13T05:32:04.486Z,99150.45
2018-06-13T05:34:34.278Z,99151.41
2018-06-13T05:37:04.118Z,99151.72
2018-06-13T05:39:33.978Z,99148.03
2018-06-13T05:42:03.725Z,99153.17
2018-06-13T05:44:33.159Z,99153.46
2018-06-13T05:47:02.880Z,99151.00
2018-06-13T05:49:32.408Z,99150.28
2018-06-13T05:52:02.107Z,99144.06
2018-06-13T05:54:31.914Z,99143.42
2018-06-13T05:57:01.706Z,99152.25
2018-06-13T05:59:31.639Z,99156.97
2018-06-13T06:02:01.583Z,99165.01
2018-06-13T06:04:31.370Z,99166.53
2018-06-13T06:07:01.245Z,99166.67
2018-06-13T06:09:31.081Z,99165.20
2018-06-13T06:12:00.918Z,99175.81
2018-06-13T06:14:30.679Z,99179.83
2018-06-13T06:17:00.685Z,99183.83
2018-06-13T06:19:30.485Z,99181.33
2018-06-13T06:22:00.356Z,99182.02
2018-06-13T06:24:30.227Z,99182.52
2018-06-13T06:27:00.183Z,99181.31
2018-06-13T06:29:29.938Z,99195.89
2018-06-13T06:31:59.991Z,99189.67
2018-06-13T06:34:29.918Z,99190.71
2018-06-13T06:36:59.740Z,99187.19
2018-06-13T06:39:30.097Z,99187.25
2018-06-13T06:41:59.952Z,99182.81
2018-06-13T06:44:30.084Z,99194.08
2018-06-13T06:46:59.916Z,99188.16
2018-06-13T06:49:29.678Z,99188.30
2018-06-13T06:51:59.686Z,99192.01
2018-06-13T06:54:29.449Z,99192.84
2018-06-13T06:56:59.390Z,99192.52
2018-06-13T06:59:29.270Z,99192.14
2018-06-13T07:01:59.019Z,99191.75
2018-06-13T07:04:28.867Z,99190.45
2018-06-13T07:06:59.416Z,99183.23
2018-06-13T07:09:29.757Z,99186.17
2018-06-13T07:11:59.798Z,99188.73
2018-06-13T07:14:29.644Z,99197.41
2018-06-13T07:16:59.567Z,99198.67
2018-06-13T07:19:29.603Z,99195.16
2018-06-13T07:21:59.499Z,99190.17
2018-06-13T07:24:29.387Z,99189.55
2018-06-13T07:26:59.751Z,99193.14
2018-06-13T07:29:29.525Z,99196.85
2018-06-13T07:31:59.459Z,99200.87
2018-06-13T07:34:29.284Z,99197.48
2018-06-13T07:36:59.189Z,99200.52
2018-06-13T07:39:29.352Z,99205.14
2018-06-13T07:41:59.160Z,99200.73
2018-06-13T07:44:29.251Z,99202.86
2018-06-13T07:46:59.164Z,99210.30
2018-06-13T07:49:28.922Z,99217.13
2018-06-13T07:51:58.690Z,99220.41
2018-06-13T07:54:30.655Z,99214.59
2018-06-13T07:57:01.924Z,99219.80
2018-06-13T07:59:33.140Z,99219.12
2018-06-13T08:02:03.466Z,99226.92
2018-06-13T08:04:33.590Z,99226.11
2018-06-13T08:07:04.020Z,99220.29
2018-06-13T08:09:33.693Z,99222.70
2018-06-13T08:12:03.674Z,99221.58
2018-06-13T08:14:33.505Z,99226.97
2018-06-13T08:17:03.405Z,99225.28
2018-06-13T08:19:33.113Z,99230.95
2018-06-13T08:22:02.811Z,99230.58
2018-06-13T08:25:04.683Z,99232.83
2018-06-13T08:27:34.940Z,99233.52
2018-06-13T08:30:05.013Z,99234.73
2018-06-13T08:32:35.071Z,99236.28
2018-06-13T08:35:04.761Z,99242.81
2018-06-13T08:37:35.986Z,99246.30
2018-06-13T08:40:05.735Z,99251.11
2018-06-13T08:42:35.368Z,99251.09
2018-06-13T08:45:05.173Z,99249.22
2018-06-13T08:47:34.872Z,99247.29
2018-06-13T08:50:04.894Z,99248.34
2018-06-13T08:52:34.586Z,99248.02
2018-06-13T08:55:04.348Z,99248.34
2018-06-13T08:57:34.143Z,99246.08
2018-06-13T09:00:04.887Z,99245.47
2018-06-13T09:02:34.427Z,99238.70
2018-06-13T09:05:04.175Z,99236.73
2018-06-13T09:07:33.860Z,99242.44
2018-06-13T09:10:03.626Z,99236.33
2018-06-13T09:12:33.576Z,99237.46
2018-06-13T09:15:03.372Z,99233.27
2018-06-13T09:17:33.285Z,99231.30
2018-06-13T09:20:03.006Z,99239.00
2018-06-13T09:22:33.123Z,99228.48
2018-06-13T09:25:03.019Z,99234.59
2018-06-13T09:27:32.823Z,99234.05
2018-06-13T09:30:02.526Z,99235.31
2018-06-13T09:32:32.974Z,99240.63
2018-06-13T09:35:02.868Z,99239.27
2018-06-13T09:37:32.640Z,99240.31
2018-06-13T09:40:03.181Z,99251.02
2018-06-13T09:42:32.898Z,99244.39
2018-06-13T09:45:02.610Z,99248.78
2018-06-13T09:47:32.325Z,99250.18
2018-06-13T09:50:02.036Z,99253.23
2018-06-13T09:52:32.117Z,99255.17
2018-06-13T09:55:01.802Z,99257.97
2018-06-13T09:57:31.679Z,99253.72
2018-06-13T10:00:06.590Z,99258.14
2018-06-13T10:02:36.712Z,99259.78
2018-06-13T10:05:07.016Z,99258.31
2018-06-13T10:07:36.903Z,99257.98
2018-06-13T10:10:07.106Z,99263.63
2018-06-13T10:12:36.810Z,99261.34
2018-06-13T10:15:06.266Z,99260.97
2018-06-13T10:17:36.425Z,99264.58
2018-06-13T10:20:06.517Z,99261.88
2018-06-13T10:22:36.344Z,99272.38
2018-06-13T10:25:06.216Z,99268.14
2018-06-13T10:27:40.586Z,99267.01
2018-06-13T10:30:10.290Z,99269.69
2018-06-13T10:32:40.094Z,99267.96
2018-06-13T10:35:12.319Z,99272.89
2018-06-13T10:37:43.761Z,99282.89
2018-06-13T10:40:13.529Z,99281.33
2018-06-13T10:42:43.125Z,99280.37
2018-06-13T10:45:12.854Z,99288.31
2018-06-13T10:47:42.663Z,99286.39
2018-06-13T10:50:12.366Z,99285.51
2018-06-13T10:52:42.316Z,99296.65
2018-06-13T10:55:12.031Z,99291.95
2018-06-13T10:57:42.689Z,99292.06
2018-06-13T11:00:12.511Z,99292.27
2018-06-13T11:02:43.409Z,99294.19
2018-06-13T11:05:13.317Z,99301.20
2018-06-13T11:07:43.030Z,99301.16
2018-06-13T11:10:12.814Z,99298.33
2018-06-13T11:12:42.588Z,99296.66
2018-06-13T11:15:12.282Z,99296.82
2018-06-13T11:17:42.094Z,99291.47
2018-06-13T11:20:11.783Z,99297.31
2018-06-13T11:22:41.592Z,99296.60
2018-06-13T11:25:11.312Z,99291.98
2018-06-13T11:27:41.136Z,99291.26
2018-06-13T11:30:10.884Z,99289.91
2018-06-13T11:32:40.787Z,99293.80
2018-06-13T11:35:10.650Z,99300.22
2018-06-13T11:37:40.422Z,99296.14
2018-06-13T11:40:10.274Z,99293.31
2018-06-13T11:42:40.227Z,99287.64
2018-06-13T11:45:09.977Z,99293.67
2018-06-13T11:47:39.976Z,99287.41
2018-06-13T11:50:09.704Z,99286.21
2018-06-13T11:52:39.563Z,99281.84
2018-06-13T11:55:09.960Z,99279.45
2018-06-13T11:57:39.683Z,99275.99
2018-06-13T12:00:10.012Z,99274.48
2018-06-13T12:02:46.518Z,99274.64
2018-06-13T12:05:16.353Z,99275.89
2018-06-13T12:07:46.139Z,99263.75
2018-06-13T12:10:15.955Z,99266.91
2018-06-13T12:12:45.746Z,99269.03
2018-06-13T12:15:15.555Z,99267.58
2018-06-13T12:17:45.330Z,99269.19
2018-06-13T12:20:15.027Z,99268.84
2018-06-13T12:22:45.027Z,99267.75
2018-06-13T12:25:14.731Z,99265.09
2018-06-13T12:27:44.764Z,99265.30
2018-06-13T12:30:14.603Z,99263.53
2018-06-13T12:32:44.486Z,99260.83
2018-06-13T12:35:14.292Z,99265.62
2018-06-13T12:37:44.194Z,99265.61
2018-06-13T12:40:14.638Z,99264.83
2018-06-13T12:42:44.439Z,99267.65
2018-06-13T12:45:14.123Z,99261.27
2018-06-13T12:47:43.902Z,99268.06
2018-06-13T12:50:13.599Z,99263.70
2018-06-13T12:52:43.326Z,99267.66
2018-06-13T12:55:13.296Z,99268.32
2018-06-13T12:57:43.015Z,99262.53
2018-06-13T13:00:12.810Z,99268.34
2018-06-13T13:02:42.680Z,99265.53
2018-06-13T13:05:12.430Z,99267.58
2018-06-13T13:07:42.286Z,99267.67
2018-06-13T13:10:12.029Z,99267.77
2018-06-13T13:12:42.489Z,99267.47
2018-06-13T13:15:12.383Z,99263.28
2018-06-13T13:17:42.342Z,99266.11
2018-06-13T13:20:12.054Z,99267.86
2018-06-13T13:22:42.068Z,99267.20
2018-06-13T13:25:12.470Z,99269.14
2018-06-13T13:27:42.221Z,99269.94
2018-06-13T13:30:12.000Z,99270.68
2018-06-13T13:32:41.935Z,99269.55
2018-06-13T13:35:11.752Z,99266.64
2018-06-13T13:37:41.518Z,99262.54
2018-06-13T13:40:11.182Z,99268.19
2018-06-13T13:42:41.494Z,99268.53
2018-06-13T13:45:11.211Z,99269.19
2018-06-13T13:47:40.995Z,99279.17
2018-06-13T13:50:11.321Z,99280.30
2018-06-13T13:52:41.133Z,99284.28
2018-06-13T13:55:11.038Z,99288.18
2018-06-13T13:57:40.791Z,99285.72
2018-06-13T14:00:10.532Z,99282.42
2018-06-13T14:02:40.651Z,99277.17
2018-06-13T14:05:10.398Z,99274.65
2018-06-13T14:07:40.138Z,99269.84
2018-06-13T14:10:09.835Z,99274.95
2018-06-13T14:12:39.608Z,99272.48
2018-06-13T14:15:09.311Z,99271.26
2018-06-13T14:17:39.035Z,99276.13
2018-06-13T14:20:09.023Z,99275.97
2018-06-13T14:22:38.628Z,99273.36
2018-06-13T14:25:08.600Z,99276.88
2018-06-13T14:27:38.495Z,99286.36
2018-06-13T14:30:08.226Z,99283.87
2018-06-13T14:32:38.154Z,99282.97
2018-06-13T14:35:08.059Z,99286.36
2018-06-13T14:37:37.776Z,99288.34
2018-06-13T14:40:08.357Z,99290.12
2018-06-13T14:42:38.058Z,99287.14
2018-06-13T14:45:08.011Z,99288.27
2018-06-13T14:47:37.920Z,99287.39
2018-06-13T14:50:07.694Z,99290.43
2018-06-13T14:52:37.481Z,99297.72
2018-06-13T14:55:07.598Z,99293.77
2018-06-13T14:57:37.298Z,99303.52
2018-06-13T15:00:07.061Z,99296.72
2018-06-13T15:02:37.353Z,99299.90
2018-06-13T15:05:07.492Z,99296.53
2018-06-13T15:07:37.254Z,99301.54
2018-06-13T15:10:07.039Z,99302.27
2018-06-13T15:12:36.498Z,99299.67
2018-06-13T15:15:06.546Z,99296.06
2018-06-13T15:17:36.249Z,99293.47
2018-06-13T15:20:06.404Z,99298.13
2018-06-13T15:22:36.325Z,99295.19
2018-06-13T15:25:06.334Z,99293.27
2018-06-13T15:27:35.783Z,99297.07
2018-06-13T15:30:05.826Z,99296.06
2018-06-13T15:32:35.851Z,99295.23
2018-06-13T15:35:05.559Z,99301.13
2018-06-13T15:37:35.296Z,99303.75
2018-06-13T15:40:05.268Z,99299.97
2018-06-13T15:42:34.962Z,99305.55
2018-06-13T15:45:05.445Z,99302.14
2018-06-13T15:47:35.209Z,99308.59
2018-06-13T15:50:05.380Z,99311.02
2018-06-13T15:52:35.258Z,99302.98
2018-06-13T15:55:05.563Z,99309.16
2018-06-13T15:57:35.436Z,99308.66
2018-06-13T16:00:06.033Z,99310.38
2018-06-13T16:02:37.054Z,99314.97
2018-06-13T16:05:07.084Z,99316.13
2018-06-13T16:07:36.876Z,99322.53
2018-06-13T16:10:06.848Z,99313.98
2018-06-13T16:12:37.329Z,99308.81
2018-06-13T16:15:07.060Z,99311.38
2018-06-13T16:17:36.847Z,99314.33
2018-06-13T16:20:06.899Z,99305.52
2018-06-13T16:22:36.607Z,99307.87
2018-06-13T16:25:06.814Z,99307.68
2018-06-13T16:27:36.735Z,99308.13
2018-06-13T16:30:06.718Z,99308.18
2018-06-13T16:32:36.245Z,99307.31
2018-06-13T16:35:06.034Z,99315.16
2018-06-13T16:37:35.751Z,99316.30
2018-06-13T16:40:05.627Z,99321.64
2018-06-13T16:42:35.093Z,99322.63
2018-06-13T16:45:05.245Z,99328.64
2018-06-13T16:47:35.016Z,99318.42
2018-06-13T16:50:14.627Z,99331.58
2018-06-13T16:53:00.027Z,99333.77
2018-06-13T16:55:29.557Z,99342.69
2018-06-13T16:57:59.709Z,99340.28
2018-06-13T17:00:30.336Z,99337.48
2018-06-13T17:03:00.099Z,99342.81
2018-06-13T17:05:29.862Z,99342.05
2018-06-13T17:07:59.587Z,99347.53
2018-06-13T17:10:29.061Z,99360.31
2018-06-13T17:12:58.985Z,99361.72
2018-06-13T17:15:28.839Z,99369.01
2018-06-13T17:17:58.783Z,99370.55
2018-06-13T17:20:28.536Z,99366.89
2018-06-13T17:22:58.255Z,99368.55
2018-06-13T17:25:28.926Z,99372.41
2018-06-13T17:27:58.747Z,99371.34
2018-06-13T17:30:28.519Z,99371.14
2018-06-13T17:32:58.265Z,99374.73
2018-06-13T17:35:28.126Z,99378.27
2018-06-13T17:37:58.082Z,99376.58
2018-06-13T17:40:27.870Z,99377.09
2018-06-13T17:42:58.023Z,99378.91
2018-06-13T17:45:28.196Z,99388.67
2018-06-13T17:47:57.966Z,99393.00
2018-06-13T17:50:27.790Z,99397.92
2018-06-13T17:52:57.589Z,99390.88
2018-06-13T17:55:27.370Z,99388.84
2018-06-13T17:57:57.118Z,99396.59
2018-06-13T18:00:26.930Z,99388.92
2018-06-13T18:02:56.836Z,99394.77
2018-06-13T18:05:26.618Z,99393.25
2018-06-13T18:07:56.618Z,99392.98
2018-06-13T18:10:26.374Z,99394.11
2018-06-13T18:12:56.211Z,99388.83
2018-06-13T18:15:26.061Z,99389.42
2018-06-13T18:17:55.910Z,99395.45
2018-06-13T18:20:25.791Z,99404.43
2018-06-13T18:22:55.524Z,99413.94
2018-06-13T18:25:25.707Z,99411.78
2018-06-13T18:27:55.991Z,99420.21
2018-06-13T18:30:26.183Z,99419.97
2018-06-13T18:32:55.987Z,99425.95
2018-06-13T18:35:25.810Z,99427.62
2018-06-13T18:37:55.877Z,99446.09
2018-06-13T18:40:25.773Z,99444.51
2018-06-13T18:42:55.594Z,99444.53
2018-06-13T18:45:26.206Z,99451.28
2018-06-13T18:47:56.016Z,99452.11
2018-06-13T18:50:25.746Z,99450.48
2018-06-13T18:52:55.496Z,99453.75
2018-06-13T18:55:25.337Z,99452.36
2018-06-13T18:57:55.127Z,99453.98
2018-06-13T19:00:25.553Z,99461.59
2018-06-13T19:02:55.286Z,99461.06
2018-06-13T19:05:25.050Z,99466.22
2018-06-13T19:07:54.754Z,99467.59
2018-06-13T19:10:24.500Z,99463.82
2018-06-13T19:12:54.215Z,99475.45
2018-06-13T19:15:23.926Z,99469.22
2018-06-13T19:17:53.687Z,99470.34
2018-06-13T19:20:23.746Z,99470.33
2018-06-13T19:22:53.479Z,99476.25
2018-06-13T19:25:23.190Z,99479.77
2018-06-13T19:27:53.007Z,99476.55
2018-06-13T19:30:25.139Z,99478.98
2018-06-13T19:32:55.045Z,99486.83
2018-06-13T19:35:24.803Z,99486.85
2018-06-13T19:37:54.511Z,99498.20
2018-06-13T19:40:24.274Z,99493.88
2018-06-13T19:42:54.107Z,99496.03
2018-06-13T19:45:23.940Z,99502.80
2018-06-13T19:48:59.221Z,99498.76
2018-06-13T19:51:29.040Z,99504.41
2018-06-13T19:54:04.196Z,99500.63
2018-06-13T19:56:34.386Z,99500.08
2018-06-13T19:59:04.149Z,99509.56
2018-06-13T20:01:33.893Z,99510.89
2018-06-13T20:04:09.012Z,99513.61
2018-06-13T20:06:40.298Z,99519.83
2018-06-13T20:09:11.774Z,99523.34
2018-06-13T20:11:42.324Z,99521.16
2018-06-13T20:14:17.289Z,99521.42
2018-06-13T20:16:53.322Z,99526.57
2018-06-13T20:19:28.499Z,99526.27
2018-06-13T20:21:59.371Z,99528.20
2018-06-13T20:24:29.090Z,99522.48
2018-06-13T20:27:04.302Z,99530.60
2018-06-13T20:29:39.361Z,99527.89
2018-06-13T20:32:09.115Z,99519.78
2018-06-13T20:34:39.003Z,99522.48
2018-06-13T20:37:08.815Z,99529.22
2018-06-13T20:39:39.418Z,99521.86
2018-06-13T20:42:09.365Z,99519.13
2018-06-13T20:44:39.129Z,99518.59
2018-06-13T20:47:08.876Z,99522.13
2018-06-13T20:49:38.580Z,99520.55
2018-06-13T20:52:08.329Z,99521.05
2018-06-13T20:54:38.742Z,99516.97
2018-06-13T20:57:08.524Z,99525.04
2018-06-13T20:59:38.308Z,99526.66
2018-06-13T21:02:08.123Z,99526.39
2018-06-13T21:04:37.843Z,99520.69
2018-06-13T21:07:07.671Z,99519.91
2018-06-13T21:09:37.423Z,99522.88
2018-06-13T21:12:07.727Z,99520.21
2018-06-13T21:14:37.469Z,99526.97
2018-06-13T21:17:07.206Z,99519.37
2018-06-13T21:19:37.035Z,99515.28
2018-06-13T21:22:07.078Z,99515.55
2018-06-13T21:24:36.880Z,99516.86
2018-06-13T21:27:06.703Z,99520.86
2018-06-13T21:29:36.411Z,99521.18
2018-06-13T21:32:06.330Z,99526.89
2018-06-13T21:34:36.701Z,99526.09
2018-06-13T21:37:06.468Z,99527.16
2018-06-13T21:39:36.409Z,99536.34
2018-06-13T21:42:06.625Z,99540.41
2018-06-13T21:44:36.418Z,99537.47
2018-06-13T21:47:06.162Z,99538.83
2018-06-13T21:49:35.968Z,99540.69
2018-06-13T21:52:05.732Z,99538.20
2018-06-13T21:54:35.487Z,99533.02
2018-06-13T21:57:05.230Z,99537.34
2018-06-13T21:59:34.988Z,99541.34
2018-06-13T22:02:04.810Z,99539.41
2018-06-13T22:04:34.562Z,99542.92
2018-06-13T22:07:04.364Z,99552.37
2018-06-13T22:09:34.101Z,99562.38
2018-06-13T22:12:03.980Z,99568.80
2018-06-13T22:14:33.662Z,99574.80
2018-06-13T22:17:03.124Z,99582.34
2018-06-13T22:19:32.830Z,99585.58
2018-06-13T22:22:02.675Z,99590.19
2018-06-13T22:24:32.604Z,99592.07
2018-06-13T22:27:02.318Z,99593.64
2018-06-13T22:29:32.287Z,99597.42
2018-06-13T22:32:02.031Z,99598.72
2018-06-13T22:34:31.743Z,99606.72
2018-06-13T22:37:01.518Z,99613.42
2018-06-13T22:39:31.321Z,99609.53
2018-06-13T22:42:01.304Z,99614.48
2018-06-13T22:44:31.119Z,99616.89
2018-06-13T22:47:00.846Z,99622.72
2018-06-13T22:49:30.506Z,99620.41
2018-06-13T22:52:00.670Z,99621.60
2018-06-13T22:54:30.627Z,99623.64
2018-06-13T22:57:00.787Z,99622.80
2018-06-13T22:59:30.637Z,99616.80
2018-06-13T23:02:00.511Z,99615.19
2018-06-13T23:04:30.288Z,99605.48
2018-06-13T23:07:01.466Z,99605.83
2018-06-13T23:09:30.915Z,99604.93
2018-06-13T23:12:00.739Z,99604.66
2018-06-13T23:14:30.616Z,99607.59
2018-06-13T23:17:00.325Z,99596.83
2018-06-13T23:19:30.108Z,99595.75
2018-06-13T23:21:59.922Z,99600.05
2018-06-13T23:24:29.778Z,99594.41
2018-06-13T23:26:59.595Z,99594.98
2018-06-13T23:29:29.967Z,99595.73
2018-06-13T23:31:59.739Z,99600.53
2018-06-13T23:34:29.513Z,99600.27
2018-06-13T23:36:59.372Z,99603.51
2018-06-13T23:39:29.342Z,99610.80
2018-06-13T23:41:59.147Z,99600.55
2018-06-13T23:44:28.868Z,99599.78
2018-06-13T23:46:58.687Z,99602.13
2018-06-13T23:49:28.457Z,99609.88
2018-06-13T23:51:58.256Z,99614.98
2018-06-13T23:54:28.012Z,99620.61
2018-06-13T23:56:57.782Z,99616.27
2018-06-13T23:59:27.646Z,99618.14
